Time;durP1;ratioP1;P1;durP2;ratioP2;P2;SDS_P1;SDS_P2;PMS_P1;PMS_P2;Temp;Humidity;BMP_temperature;BMP_pressure;BME280_temperature;BME280_humidity;BME280_pressure;Samples;Min_cycle;Max_cycle;Signal;HPM_P1;HPM_P2
2022/10/19 00:00:45;;;;;;;;;9.33;8.67;;;;;17.85;100.00;102070.34;5076281;28;46318;-73
2022/10/19 00:03:10;;;;;;;;;9.67;9.67;;;;;17.84;100.00;102063.19;5069556;28;62190;-73
2022/10/19 00:05:35;;;;;;;;;12.33;12.00;;;;;17.80;100.00;102059.66;5072587;28;63892;-72
2022/10/19 00:08:01;;;;;;;;;14.00;13.33;;;;;17.78;100.00;102051.63;5074910;27;62950;-73
2022/10/19 00:10:27;;;;;;;;;11.00;11.00;;;;;17.77;100.00;102044.50;5075511;28;45680;-72
2022/10/19 00:12:52;;;;;;;;;13.00;11.33;;;;;17.76;100.00;102041.84;5076026;27;45465;-71
2022/10/19 00:15:17;;;;;;;;;14.00;11.00;;;;;17.75;100.00;102045.41;5074918;28;59818;-73
2022/10/19 00:17:43;;;;;;;;;12.67;11.67;;;;;17.74;100.00;102039.16;5076230;28;45283;-72
2022/10/19 00:20:09;;;;;;;;;10.67;9.00;;;;;17.71;100.00;102039.13;5075699;28;46608;-72
2022/10/19 00:22:34;;;;;;;;;13.00;8.33;;;;;17.70;100.00;102031.13;5075862;28;45488;-72
2022/10/19 00:24:59;;;;;;;;;12.00;10.00;;;;;17.70;100.00;102037.34;5075048;28;64418;-74
2022/10/19 00:27:25;;;;;;;;;9.33;9.33;;;;;17.67;100.00;102034.66;5077185;28;61890;-74
2022/10/19 00:29:50;;;;;;;;;9.67;5.33;;;;;17.67;100.00;102037.31;5079261;28;47131;-74
2022/10/19 00:32:15;;;;;;;;;9.67;8.67;;;;;17.66;100.00;102029.31;5078038;28;69291;-72
2022/10/19 00:34:41;;;;;;;;;11.00;11.00;;;;;17.61;100.00;102026.63;5071607;28;65598;-72
2022/10/19 00:37:06;;;;;;;;;10.33;8.00;;;;;17.63;100.00;102029.31;5079352;28;45295;-72
2022/10/19 00:39:31;;;;;;;;;13.33;11.33;;;;;17.61;100.00;102015.97;5077952;28;65060;-73
2022/10/19 00:41:57;;;;;;;;;8.33;8.00;;;;;17.60;100.00;102010.63;5078909;28;59821;-72
2022/10/19 00:44:28;;;;;;;;;12.00;11.00;;;;;17.60;100.00;102005.28;5064793;28;45521;-72
2022/10/19 00:46:57;;;;;;;;;12.00;9.33;;;;;17.56;100.00;102001.72;5072460;28;45541;-74
2022/10/19 00:49:24;;;;;;;;;11.33;9.67;;;;;17.56;100.00;102001.72;5072741;28;46619;-72
2022/10/19 00:51:53;;;;;;;;;9.67;9.67;;;;;17.55;100.00;101997.25;5078954;28;45556;-73
2022/10/19 00:54:18;;;;;;;;;11.67;9.00;;;;;17.53;100.00;101996.38;5079262;27;45470;-74
2022/10/19 00:56:45;;;;;;;;;9.00;6.67;;;;;17.52;100.00;101992.81;5059322;28;45338;-72
2022/10/19 00:59:14;;;;;;;;;11.67;10.00;;;;;17.51;100.00;101993.69;5067616;28;45446;-72
2022/10/19 01:01:39;;;;;;;;;12.00;10.00;;;;;17.51;100.00;101999.03;5060733;28;45579;-72
2022/10/19 01:04:05;;;;;;;;;13.00;13.00;;;;;17.51;100.00;101987.44;5071094;28;45483;-74
2022/10/19 01:06:31;;;;;;;;;14.33;12.00;;;;;17.49;100.00;101990.13;5078369;27;48239;-72
2022/10/19 01:08:56;;;;;;;;;12.00;12.00;;;;;17.50;100.00;101985.69;5071385;28;71822;-72
2022/10/19 01:11:40;;;;;;;;;9.00;8.33;;;;;17.50;100.00;101977.66;5077781;27;65456;-72
2022/10/19 01:14:08;;;;;;;;;10.00;10.00;;;;;17.49;100.00;101984.78;5078278;28;45536;-74
2022/10/19 01:16:39;;;;;;;;;9.67;9.00;;;;;17.49;100.00;101987.47;5078746;27;45385;-74
2022/10/19 01:19:10;;;;;;;;;8.33;8.00;;;;;17.48;100.00;101992.81;5078140;28;45461;-72
2022/10/19 01:21:41;;;;;;;;;9.00;7.00;;;;;17.48;100.00;101995.47;5078799;28;45520;-72
2022/10/19 01:24:22;;;;;;;;;7.67;7.67;;;;;17.47;100.00;101986.59;5073418;28;46384;-71
2022/10/19 01:27:15;;;;;;;;;7.33;7.00;;;;;17.46;100.00;101984.78;5062742;28;45506;-72
2022/10/19 01:29:55;;;;;;;;;9.00;6.00;;;;;17.45;100.00;101993.69;5078246;28;46409;-73
2022/10/19 01:32:56;;;;;;;;;7.33;7.33;;;;;17.43;100.00;101987.47;5077854;28;45442;-72
2022/10/19 01:35:50;;;;;;;;;9.67;7.33;;;;;17.42;100.00;101990.13;5023982;28;45529;-75
2022/10/19 01:38:40;;;;;;;;;6.33;6.33;;;;;17.39;100.00;101984.78;5055325;28;45566;-74
2022/10/19 01:41:23;;;;;;;;;7.00;7.00;;;;;17.37;100.00;101976.78;5069159;28;46222;-73
2022/10/19 01:43:54;;;;;;;;;6.67;6.67;;;;;17.36;100.00;101979.44;5078633;27;45365;-72
2022/10/19 01:46:40;;;;;;;;;7.33;6.33;;;;;17.33;100.00;101974.09;5060245;28;45553;-72
2022/10/19 01:49:17;;;;;;;;;6.67;6.67;;;;;17.33;100.00;101969.66;5064819;28;45251;-73
2022/10/19 01:51:48;;;;;;;;;6.00;6.00;;;;;17.32;100.00;101970.53;5077682;28;46646;-72
2022/10/19 01:54:16;;;;;;;;;7.00;7.00;;;;;17.28;100.00;101961.63;5078297;27;45480;-73
2022/10/19 01:56:43;;;;;;;;;7.33;6.00;;;;;17.27;100.00;101967.88;5059102;28;63814;-72
2022/10/19 01:59:09;;;;;;;;;8.00;6.00;;;;;17.27;100.00;101966.97;5078978;28;45528;-73
2022/10/19 02:01:39;;;;;;;;;7.33;6.33;;;;;17.25;100.00;101958.06;5077630;28;49948;-73
2022/10/19 02:04:05;;;;;;;;;5.67;5.67;;;;;17.24;100.00;101951.81;5070946;28;45350;-72
2022/10/19 02:06:31;;;;;;;;;6.67;5.33;;;;;17.24;100.00;101938.47;5076474;27;62150;-73
2022/10/19 02:08:57;;;;;;;;;6.00;6.00;;;;;17.22;100.00;101942.94;5066976;28;62343;-73
2022/10/19 02:11:22;;;;;;;;;6.67;6.67;;;;;17.21;100.00;101934.94;5077151;28;66539;-73
2022/10/19 02:13:58;;;;;;;;;8.00;8.00;;;;;17.21;100.00;101933.16;5065572;28;45518;-74
2022/10/19 02:16:36;;;;;;;;;5.00;5.00;;;;;17.22;100.00;101931.38;5077216;28;45496;-72
2022/10/19 02:19:02;;;;;;;;;6.00;4.67;;;;;17.20;100.00;101922.47;5071279;28;45508;-72
2022/10/19 02:21:28;;;;;;;;;6.00;6.00;;;;;17.18;100.00;101919.78;5057964;28;46225;-72
2022/10/19 02:23:53;;;;;;;;;6.00;6.00;;;;;17.19;100.00;101916.22;5077599;28;45298;-73
2022/10/19 02:26:19;;;;;;;;;5.67;5.67;;;;;17.16;100.00;101916.25;5077736;28;45409;-72
2022/10/19 02:28:45;;;;;;;;;8.00;5.00;;;;;17.17;100.00;101909.13;5068053;28;45652;-74
2022/10/19 02:31:10;;;;;;;;;5.00;5.00;;;;;17.17;100.00;101910.00;5077687;28;46381;-72
2022/10/19 02:33:36;;;;;;;;;5.00;5.00;;;;;17.16;100.00;101907.34;5067830;28;55384;-72
2022/10/19 02:36:01;;;;;;;;;6.67;5.67;;;;;17.14;100.00;101907.31;5077022;27;59626;-72
2022/10/19 02:38:27;;;;;;;;;5.00;5.00;;;;;17.14;100.00;101899.31;5077528;28;45180;-72
2022/10/19 02:41:14;;;;;;;;;5.00;5.00;;;;;17.16;100.00;101896.69;5065077;28;51147;-73
2022/10/19 02:43:41;;;;;;;;;6.00;5.00;;;;;17.15;100.00;101897.53;5072516;28;45494;-72
2022/10/19 02:46:13;;;;;;;;;5.33;5.33;;;;;17.15;100.00;101893.13;5062116;28;45502;-72
2022/10/19 02:48:39;;;;;;;;;5.67;5.00;;;;;17.15;100.00;101893.13;5059098;28;45446;-75
2022/10/19 02:51:05;;;;;;;;;6.00;6.00;;;;;17.17;100.00;101894.00;5076032;28;73226;-72
2022/10/19 02:53:30;;;;;;;;;5.00;5.00;;;;;17.17;100.00;101883.31;5076340;27;62381;-74
2022/10/19 02:55:55;;;;;;;;;5.00;5.00;;;;;17.17;100.00;101882.44;5077270;28;45830;-72
2022/10/19 02:58:21;;;;;;;;;6.00;5.00;;;;;17.17;100.00;101879.75;5075147;28;45329;-72
2022/10/19 03:00:46;;;;;;;;;7.33;4.67;;;;;17.15;100.00;101879.78;5076393;28;72524;-74
2022/10/19 03:03:11;;;;;;;;;5.00;5.00;;;;;17.17;100.00;101877.97;5076695;28;45298;-73
2022/10/19 03:05:37;;;;;;;;;6.67;5.00;;;;;17.17;100.00;101871.75;5076036;28;58197;-73
2022/10/19 03:08:03;;;;;;;;;5.00;4.00;;;;;17.16;100.00;101878.88;5077217;27;45362;-72
2022/10/19 03:10:28;;;;;;;;;5.00;5.00;;;;;17.15;100.00;101873.50;5076736;28;46638;-73
2022/10/19 03:12:56;;;;;;;;;4.33;4.33;;;;;17.15;100.00;101874.44;5075863;28;63563;-74
2022/10/19 03:15:23;;;;;;;;;5.33;5.33;;;;;17.14;100.00;101869.06;5076459;28;45297;-72
2022/10/19 03:17:51;;;;;;;;;7.33;7.00;;;;;17.12;100.00;101861.06;5077216;27;45476;-72
2022/10/19 03:20:17;;;;;;;;;6.67;4.00;;;;;17.11;100.00;101853.09;5076861;28;45912;-72
2022/10/19 03:22:42;;;;;;;;;5.67;5.67;;;;;17.11;100.00;101855.75;5075984;28;45522;-72
2022/10/19 03:25:08;;;;;;;;;5.00;5.00;;;;;17.09;100.00;101852.16;5076062;28;58039;-73
2022/10/19 03:27:33;;;;;;;;;6.00;4.00;;;;;17.09;100.00;101857.50;5071479;28;45446;-73
2022/10/19 03:29:58;;;;;;;;;3.67;3.67;;;;;17.10;100.00;101851.28;5075985;27;58803;-73
2022/10/19 03:32:24;;;;;;;;;5.00;5.00;;;;;17.08;100.00;101848.63;5075511;27;63610;-72
2022/10/19 03:34:49;;;;;;;;;6.67;6.67;;;;;17.08;100.00;101853.94;5076010;28;45409;-73
2022/10/19 03:37:14;;;;;;;;;4.00;4.00;;;;;17.04;100.00;101841.50;5076393;27;57334;-75
2022/10/19 03:39:40;;;;;;;;;4.67;4.33;;;;;17.07;100.00;101840.63;5075487;28;65810;-72
2022/10/19 03:42:05;;;;;;;;;6.00;6.00;;;;;17.07;100.00;101844.16;5076193;28;45303;-72
2022/10/19 03:44:30;;;;;;;;;7.33;5.33;;;;;17.06;100.00;101836.19;5076312;27;45870;-74
2022/10/19 03:46:56;;;;;;;;;7.00;7.00;;;;;17.05;100.00;101829.94;5076176;27;58447;-73
2022/10/19 03:49:21;;;;;;;;;4.67;4.00;;;;;17.03;100.00;101831.72;5074737;28;66449;-72
2022/10/19 03:51:46;;;;;;;;;5.00;5.00;;;;;17.03;100.00;101829.94;5074984;28;66330;-73
2022/10/19 03:54:13;;;;;;;;;6.00;6.00;;;;;17.05;100.00;101834.41;5073205;27;65145;-73
2022/10/19 03:56:39;;;;;;;;;6.00;6.00;;;;;17.03;100.00;101826.38;5062037;28;45263;-72
2022/10/19 03:59:05;;;;;;;;;6.33;5.00;;;;;17.03;100.00;101823.72;5068921;28;46672;-75
2022/10/19 04:01:49;;;;;;;;;7.33;5.67;;;;;17.02;100.00;101817.47;5075639;27;45345;-72
2022/10/19 04:04:16;;;;;;;;;4.00;4.00;;;;;17.02;100.00;101828.16;5075694;28;62133;-72
2022/10/19 04:06:44;;;;;;;;;5.67;5.67;;;;;17.02;100.00;101830.81;5076110;28;45513;-73
2022/10/19 04:09:15;;;;;;;;;6.67;5.33;;;;;17.04;100.00;101833.47;5076070;28;46314;-74
2022/10/19 04:11:40;;;;;;;;;6.67;5.00;;;;;17.03;100.00;101835.25;5075731;28;45390;-72
2022/10/19 04:14:06;;;;;;;;;5.67;5.00;;;;;17.05;100.00;101832.63;5076138;28;45342;-73
2022/10/19 04:16:32;;;;;;;;;4.00;4.00;;;;;17.03;100.00;101834.38;5071119;28;45422;-72
2022/10/19 04:18:57;;;;;;;;;4.67;4.33;;;;;17.03;100.00;101832.59;5075975;27;45734;-72
2022/10/19 04:21:26;;;;;;;;;7.00;6.33;;;;;17.03;100.00;101835.25;5075563;28;45284;-72
2022/10/19 04:23:53;;;;;;;;;6.00;6.00;;;;;17.03;100.00;101835.25;5075868;28;45312;-74
2022/10/19 04:26:19;;;;;;;;;7.33;5.67;;;;;17.02;100.00;101835.28;5066799;28;45582;-74
2022/10/19 04:28:45;;;;;;;;;6.33;6.33;;;;;17.03;100.00;101839.72;5075413;27;46438;-72
2022/10/19 04:31:11;;;;;;;;;6.00;6.00;;;;;17.01;100.00;101830.84;5075610;27;45539;-72
2022/10/19 04:33:36;;;;;;;;;7.67;5.67;;;;;16.98;100.00;101839.72;5075675;28;45424;-74
2022/10/19 04:36:04;;;;;;;;;6.00;6.00;;;;;16.98;100.00;101838.81;5074419;28;59526;-72
2022/10/19 04:38:30;;;;;;;;;7.00;7.00;;;;;16.98;100.00;101841.50;5076142;28;47416;-74
2022/10/19 04:41:03;;;;;;;;;7.33;5.67;;;;;16.96;100.00;101833.50;5075137;28;45454;-72
2022/10/19 04:43:29;;;;;;;;;7.33;6.00;;;;;16.96;100.00;101833.50;5076060;28;45390;-72
2022/10/19 04:45:54;;;;;;;;;6.00;6.00;;;;;16.93;100.00;101832.59;5074149;28;58191;-73
2022/10/19 04:48:20;;;;;;;;;7.00;6.00;;;;;16.92;100.00;101825.47;5075797;28;45846;-74
2022/10/19 04:50:45;;;;;;;;;7.00;7.00;;;;;16.90;100.00;101817.50;5067064;28;54562;-73
2022/10/19 04:53:10;;;;;;;;;7.33;6.00;;;;;16.90;100.00;101813.94;5071649;28;61764;-72
2022/10/19 04:55:42;;;;;;;;;7.67;7.00;;;;;16.87;100.00;101803.25;5074082;28;51940;-73
2022/10/19 04:58:07;;;;;;;;;9.33;8.33;;;;;16.86;100.00;101799.69;5070130;28;46628;-73
2022/10/19 05:00:33;;;;;;;;;6.33;6.33;;;;;16.87;100.00;101795.25;5074943;28;62666;-72
2022/10/19 05:02:58;;;;;;;;;8.00;8.00;;;;;16.86;100.00;101791.69;5074937;28;45358;-73
2022/10/19 05:05:25;;;;;;;;;8.67;7.33;;;;;16.86;100.00;101780.13;5076837;28;64510;-73
2022/10/19 05:07:51;;;;;;;;;11.00;9.67;;;;;16.87;100.00;101776.56;5074276;28;46486;-74
2022/10/19 05:10:16;;;;;;;;;8.00;7.00;;;;;16.87;100.00;101773.91;5075098;28;45181;-74
2022/10/19 05:12:41;;;;;;;;;6.67;6.00;;;;;16.86;100.00;101772.13;5077004;28;45757;-73
2022/10/19 05:15:07;;;;;;;;;8.00;8.00;;;;;16.84;100.00;101763.25;5077141;28;47020;-73
2022/10/19 05:17:33;;;;;;;;;9.00;6.00;;;;;16.87;100.00;101773.91;5077129;28;46056;-73
2022/10/19 05:19:58;;;;;;;;;7.00;7.00;;;;;16.88;100.00;101770.34;5077064;28;70214;-73
2022/10/19 05:22:23;;;;;;;;;12.00;9.00;;;;;16.88;100.00;101775.69;5077114;28;63957;-72
2022/10/19 05:27:49;;;;;;;;;6.00;6.00;;;;;16.85;100.00;101762.34;4911589;26;46966;-72
2022/10/19 05:30:15;;;;;;;;;5.67;5.67;;;;;16.85;100.00;101775.69;4977225;28;45529;-73
2022/10/19 05:32:40;;;;;;;;;9.00;9.00;;;;;16.87;100.00;101768.56;4976395;28;46552;-72
2022/10/19 05:35:05;;;;;;;;;7.67;7.00;;;;;16.84;100.00;101764.13;4977645;28;61646;-72
2022/10/19 05:37:31;;;;;;;;;8.67;6.00;;;;;16.87;100.00;101761.44;4977593;28;46150;-72
2022/10/19 05:39:56;;;;;;;;;7.67;7.00;;;;;16.87;100.00;101758.78;4976943;28;65230;-72
2022/10/19 05:42:21;;;;;;;;;8.00;8.00;;;;;16.87;100.00;101757.91;4977522;28;65047;-72
2022/10/19 05:44:47;;;;;;;;;9.33;8.67;;;;;16.86;100.00;101750.78;4976289;28;61681;-73
2022/10/19 05:47:12;;;;;;;;;8.67;7.33;;;;;16.86;100.00;101746.34;4973918;28;45757;-72
2022/10/19 05:49:37;;;;;;;;;9.00;9.00;;;;;16.84;100.00;101745.47;4976376;28;57457;-74
2022/10/19 05:52:03;;;;;;;;;8.00;6.67;;;;;16.84;100.00;101741.91;4976291;28;63743;-73
2022/10/19 05:54:28;;;;;;;;;10.00;8.00;;;;;16.82;100.00;101738.34;4977059;28;45448;-73
2022/10/19 05:56:53;;;;;;;;;10.00;8.00;;;;;16.81;100.00;101741.91;4977566;28;67490;-72
2022/10/19 05:59:20;;;;;;;;;6.00;6.00;;;;;16.77;100.00;101736.56;4977438;28;65596;-74
2022/10/19 06:01:46;;;;;;;;;9.67;7.33;;;;;16.78;100.00;101737.47;4976760;28;45555;-72
2022/10/19 06:04:13;;;;;;;;;7.00;7.00;;;;;16.77;100.00;101739.22;4975342;28;45569;-73
2022/10/19 06:06:39;;;;;;;;;10.67;9.67;;;;;16.76;100.00;101745.44;4971582;28;47681;-72
2022/10/19 06:09:05;;;;;;;;;31.00;26.00;;;;;16.75;100.00;101754.34;4972056;28;45541;-72
2022/10/19 06:11:33;;;;;;;;;13.00;10.67;;;;;16.73;100.00;101756.13;4973009;28;63637;-74
2022/10/19 06:14:01;;;;;;;;;10.33;9.00;;;;;16.74;100.00;101757.91;4964640;28;45583;-73
2022/10/19 06:16:28;;;;;;;;;10.00;8.67;;;;;16.73;100.00;101758.81;4974388;28;46332;-72
2022/10/19 06:18:54;;;;;;;;;8.00;8.00;;;;;16.71;100.00;101751.66;4971947;28;45912;-74
2022/10/19 06:21:23;;;;;;;;;8.67;8.67;;;;;16.73;100.00;101744.59;4972469;28;45484;-72
2022/10/19 06:23:50;;;;;;;;;7.67;6.67;;;;;16.72;100.00;101751.69;4970312;28;45683;-73
2022/10/19 06:26:15;;;;;;;;;8.67;8.67;;;;;16.68;100.00;101751.66;4971571;28;45800;-72
2022/10/19 06:28:42;;;;;;;;;8.33;7.00;;;;;16.70;100.00;101750.75;4973264;28;68686;-75
2022/10/19 06:31:08;;;;;;;;;9.00;7.00;;;;;16.67;100.00;101753.44;4974084;28;45513;-73
2022/10/19 06:33:33;;;;;;;;;11.00;9.33;;;;;16.62;100.00;101746.28;4974071;28;46597;-75
2022/10/19 06:36:20;;;;;;;;;11.00;9.33;;;;;16.57;100.00;101754.31;4973008;28;52130;-74
2022/10/19 06:38:46;;;;;;;;;10.33;8.00;;;;;16.55;100.00;101750.72;4972035;28;45417;-75
2022/10/19 06:41:12;;;;;;;;;8.67;8.67;;;;;16.55;100.00;101752.50;4975166;28;45476;-74
2022/10/19 06:43:37;;;;;;;;;11.67;9.00;;;;;16.55;100.00;101748.06;4974883;28;45524;-75
2022/10/19 06:46:16;;;;;;;;;9.00;9.00;;;;;16.57;100.00;101746.31;4973893;28;45647;-74
2022/10/19 06:48:41;;;;;;;;;9.00;9.00;;;;;16.58;100.00;101737.41;4977847;28;45491;-73
2022/10/19 06:51:07;;;;;;;;;12.67;9.00;;;;;16.60;100.00;101732.06;4975930;28;45721;-76
2022/10/19 06:53:35;;;;;;;;;13.00;11.00;;;;;16.61;100.00;101732.06;4972379;28;53807;-73
2022/10/19 06:56:02;;;;;;;;;10.00;10.00;;;;;16.62;100.00;101724.97;4968045;28;46701;-74
2022/10/19 06:58:27;;;;;;;;;14.00;10.67;;;;;16.65;100.00;101740.97;4974033;28;45444;-74
2022/10/19 07:00:56;;;;;;;;;10.67;9.33;;;;;16.68;100.00;101754.31;4970862;28;45464;-74
2022/10/19 07:03:22;;;;;;;;;12.67;9.00;;;;;16.69;100.00;101745.44;4975911;28;45269;-76
2022/10/19 07:05:55;;;;;;;;;10.33;9.33;;;;;16.72;100.00;101735.69;4971876;28;46612;-74
2022/10/19 07:08:21;;;;;;;;;9.00;9.00;;;;;16.77;100.00;101735.66;4966125;28;45606;-74
2022/10/19 07:10:54;;;;;;;;;10.33;10.33;;;;;16.82;100.00;101733.88;4973423;28;58938;-74
2022/10/19 07:13:19;;;;;;;;;14.00;11.00;;;;;16.83;100.00;101730.34;4974180;28;45684;-76
2022/10/19 07:15:45;;;;;;;;;14.00;12.67;;;;;16.90;100.00;101733.91;4974264;28;45631;-74
2022/10/19 07:18:10;;;;;;;;;18.33;14.00;;;;;16.94;100.00;101715.22;4975806;28;45325;-74
2022/10/19 07:20:36;;;;;;;;;12.67;11.00;;;;;16.98;100.00;101722.31;4980475;28;45527;-75
2022/10/19 07:23:01;;;;;;;;;11.33;10.33;;;;;17.02;100.00;101720.53;4974756;28;45583;-74
2022/10/19 07:25:27;;;;;;;;;17.33;13.67;;;;;17.05;100.00;101715.22;4974774;28;45669;-76
2022/10/19 07:27:52;;;;;;;;;15.00;13.00;;;;;17.09;100.00;101713.41;4978641;28;45392;-74
2022/10/19 07:30:19;;;;;;;;;17.00;14.00;;;;;17.13;100.00;101705.41;4974195;28;63970;-74
2022/10/19 07:32:44;;;;;;;;;10.00;10.00;;;;;17.20;100.00;101716.94;4975786;28;45804;-74
2022/10/19 07:35:10;;;;;;;;;11.67;11.33;;;;;17.23;100.00;101709.81;4974156;28;45898;-74
2022/10/19 07:37:35;;;;;;;;;13.00;12.00;;;;;17.27;100.00;101722.28;4975062;28;45244;-76
2022/10/19 07:40:00;;;;;;;;;12.33;11.00;;;;;17.33;100.00;101728.50;4975151;28;60926;-75
2022/10/19 07:42:29;;;;;;;;;14.67;13.67;;;;;17.37;100.00;101716.94;4975755;28;45484;-75
2022/10/19 07:44:54;;;;;;;;;17.67;13.67;;;;;17.42;100.00;101720.47;4975342;28;47418;-74
2022/10/19 07:47:19;;;;;;;;;13.67;12.00;;;;;17.46;100.00;101715.09;4974803;28;45440;-75
2022/10/19 07:49:45;;;;;;;;;19.33;13.33;;;;;17.48;100.00;101710.66;4974273;28;61527;-75
2022/10/19 07:52:10;;;;;;;;;13.00;13.00;;;;;17.49;100.00;101719.56;4974939;28;58422;-74
2022/10/19 07:54:35;;;;;;;;;16.67;13.33;;;;;17.50;100.00;101710.63;4975564;28;47080;-75
2022/10/19 07:57:01;;;;;;;;;14.00;14.00;;;;;17.52;100.00;101719.53;4975498;28;62635;-75
2022/10/19 07:59:26;;;;;;;;;20.00;14.00;;;;;17.51;100.00;101709.75;4975315;28;60701;-76
2022/10/19 08:01:53;;;;;;;;;17.33;14.33;;;;;17.55;100.00;101711.50;4975150;28;45906;-75
2022/10/19 08:04:18;;;;;;;;;18.00;16.00;;;;;17.58;100.00;101714.19;4975452;28;46497;-74
2022/10/19 08:06:44;;;;;;;;;19.00;16.67;;;;;17.62;100.00;101713.25;4970573;28;67423;-74
2022/10/19 08:09:09;;;;;;;;;13.33;13.00;;;;;17.67;100.00;101710.56;4974409;28;45397;-74
2022/10/19 08:11:35;;;;;;;;;19.67;16.00;;;;;17.73;100.00;101713.25;4974302;28;45611;-74
2022/10/19 08:14:03;;;;;;;;;16.67;13.00;;;;;17.80;100.00;101715.91;4974547;28;46500;-76
2022/10/19 08:16:32;;;;;;;;;18.00;14.33;;;;;17.89;100.00;101714.06;4974823;28;45441;-75
2022/10/19 08:19:00;;;;;;;;;14.00;13.33;;;;;17.95;100.00;101706.91;4975450;28;45488;-74
2022/10/19 08:21:26;;;;;;;;;19.67;14.67;;;;;18.02;100.00;101707.78;4975679;28;45530;-74
2022/10/19 08:23:52;;;;;;;;;18.67;15.67;;;;;18.09;100.00;101709.50;4973672;28;45622;-73
2022/10/19 08:26:18;;;;;;;;;17.67;15.00;;;;;18.19;100.00;101705.00;4973041;28;62864;-76
2022/10/19 08:28:43;;;;;;;;;16.33;14.67;;;;;18.24;100.00;101693.38;4981188;28;45515;-74
2022/10/19 08:31:13;;;;;;;;;14.00;14.00;;;;;18.32;100.00;101699.56;4974329;28;57908;-74
2022/10/19 08:33:39;;;;;;;;;12.67;11.00;;;;;18.38;100.00;101700.41;4980812;28;47715;-74
2022/10/19 08:36:06;;;;;;;;;12.33;11.00;;;;;18.44;100.00;101701.25;4974355;28;45442;-74
2022/10/19 08:38:34;;;;;;;;;13.67;13.67;;;;;18.50;100.00;101692.28;4974462;28;45187;-74
2022/10/19 08:41:08;;;;;;;;;15.67;13.67;;;;;18.54;100.00;101688.69;4975022;28;45418;-73
2022/10/19 08:43:37;;;;;;;;;17.33;14.00;;;;;18.57;100.00;101685.97;4988932;28;47015;-74
2022/10/19 08:46:38;;;;;;;;;13.00;10.00;;;;;18.61;100.00;101677.03;4973797;28;45482;-73
2022/10/19 08:49:04;;;;;;;;;11.00;11.00;;;;;18.65;100.00;101680.59;4977896;28;45316;-74
2022/10/19 08:51:35;;;;;;;;;15.33;13.00;;;;;18.66;100.00;101680.56;4977271;28;61928;-73
2022/10/19 08:54:11;;;;;;;;;15.67;12.67;;;;;18.68;100.00;101677.91;4977258;28;47691;-74
2022/10/19 08:56:39;;;;;;;;;13.33;12.00;;;;;18.67;100.00;101678.78;4997956;28;45438;-75
2022/10/19 08:59:16;;;;;;;;;16.33;13.00;;;;;18.66;100.00;101677.00;4976292;28;45322;-74
2022/10/19 09:02:02;;;;;;;;;9.67;9.33;;;;;18.63;100.00;101685.91;4976955;28;45472;-76
2022/10/19 09:04:32;;;;;;;;;12.00;10.67;;;;;18.62;100.00;101684.16;4977119;28;46706;-76
2022/10/19 09:07:21;;;;;;;;;12.67;11.33;;;;;18.59;100.00;101681.53;4989739;28;45539;-75
2022/10/19 09:09:50;;;;;;;;;12.33;11.33;;;;;18.59;100.00;101674.38;4995748;28;45498;-75
2022/10/19 09:12:19;;;;;;;;;12.00;10.67;;;;;18.62;100.00;101680.59;4977221;28;45585;-73
2022/10/19 09:15:00;;;;;;;;;14.00;10.67;;;;;18.62;100.00;101667.22;4992974;28;45674;-74
2022/10/19 09:17:26;;;;;;;;;12.67;12.33;;;;;18.63;100.00;101669.88;4975536;28;45396;-73
2022/10/19 09:19:52;;;;;;;;;13.67;12.00;;;;;18.63;100.00;101658.28;4976247;28;45370;-74
2022/10/19 09:22:31;;;;;;;;;11.00;11.00;;;;;18.63;100.00;101656.50;4977382;28;60247;-74
2022/10/19 09:25:00;;;;;;;;;10.33;8.33;;;;;18.62;100.00;101654.72;4988175;28;46235;-73
2022/10/19 09:27:32;;;;;;;;;13.33;13.33;;;;;18.64;100.00;101650.25;4980708;28;45647;-73
2022/10/19 09:30:02;;;;;;;;;14.00;13.00;;;;;18.64;100.00;101652.91;4973907;28;45425;-74
2022/10/19 09:32:34;;;;;;;;;14.67;12.00;;;;;18.70;100.00;101646.69;4996741;28;45496;-73
2022/10/19 09:35:02;;;;;;;;;14.67;13.00;;;;;18.71;100.00;101645.78;4977794;28;46751;-74
2022/10/19 09:37:29;;;;;;;;;11.00;10.00;;;;;18.74;100.00;101641.25;4975337;28;45425;-72
2022/10/19 09:39:55;;;;;;;;;10.33;9.00;;;;;18.81;100.00;101652.81;4975159;28;45509;-73
2022/10/19 09:42:24;;;;;;;;;12.00;10.67;;;;;18.85;100.00;101646.50;4978257;28;45585;-74
2022/10/19 09:44:51;;;;;;;;;12.00;10.33;;;;;18.89;100.00;101642.91;4992592;28;45523;-73
2022/10/19 09:47:37;;;;;;;;;12.33;10.00;;;;;18.97;100.00;101645.53;4977323;28;45468;-74
2022/10/19 09:50:20;;;;;;;;;8.67;8.00;;;;;19.02;100.00;101647.25;4990921;28;45455;-75
2022/10/19 09:52:48;;;;;;;;;10.00;7.67;;;;;19.07;100.00;101650.75;4976147;28;46086;-74
2022/10/19 09:55:13;;;;;;;;;9.33;9.33;;;;;19.13;100.00;101649.81;4976807;28;45809;-74
2022/10/19 09:57:46;;;;;;;;;11.33;9.67;;;;;19.16;100.00;101644.38;4975462;28;45409;-72
2022/10/19 10:00:21;;;;;;;;;11.33;9.67;;;;;19.19;100.00;101636.34;4974738;28;45368;-73
2022/10/19 10:02:51;;;;;;;;;11.33;9.33;;;;;19.21;100.00;101636.31;4976335;28;45290;-73
2022/10/19 10:05:17;;;;;;;;;8.00;8.00;;;;;19.23;100.00;101640.75;4974085;28;46378;-72
2022/10/19 10:07:43;;;;;;;;;7.33;7.33;;;;;19.27;100.00;101628.19;4976158;28;46002;-74
2022/10/19 10:10:24;;;;;;;;;11.00;8.00;;;;;19.31;100.00;101624.59;4977002;28;45387;-73
2022/10/19 10:12:50;;;;;;;;;12.33;9.33;;;;;19.35;100.00;101613.81;4977524;28;45352;-73
2022/10/19 10:15:20;;;;;;;;;11.67;7.67;;;;;19.40;100.00;101620.91;4991402;28;46706;-73
2022/10/19 10:17:47;;;;;;;;;7.33;7.33;;;;;19.45;100.00;101624.44;4992606;28;46332;-74
2022/10/19 10:20:22;;;;;;;;;10.33;9.33;;;;;19.51;100.00;101624.34;4976531;28;45777;-74
2022/10/19 10:22:52;;;;;;;;;8.67;8.67;;;;;19.54;100.00;101622.47;4976799;28;45413;-73
2022/10/19 10:25:18;;;;;;;;;8.00;7.00;;;;;19.59;100.00;101617.09;4976972;28;47551;-71
2022/10/19 10:27:53;;;;;;;;;10.67;8.00;;;;;19.62;100.00;101607.25;4979904;28;45491;-70
2022/10/19 10:30:19;;;;;;;;;9.33;8.00;;;;;19.68;100.00;101606.28;4976305;28;45315;-72
2022/10/19 10:32:50;;;;;;;;;10.33;9.00;;;;;19.72;100.00;101608.00;4978777;28;54742;-70
2022/10/19 10:35:18;;;;;;;;;9.33;7.00;;;;;19.78;100.00;101602.53;4972914;28;46593;-72
2022/10/19 10:37:46;;;;;;;;;9.33;9.33;;;;;19.82;100.00;101590.00;4975302;28;45454;-71
2022/10/19 10:40:25;;;;;;;;;7.33;7.33;;;;;19.85;100.00;101587.25;4976498;28;45328;-72
2022/10/19 10:42:52;;;;;;;;;12.33;9.00;;;;;19.86;100.00;101579.19;4992074;28;45658;-71
2022/10/19 10:45:38;;;;;;;;;9.00;8.00;;;;;19.88;100.00;101588.09;4976515;28;45774;-74
2022/10/19 10:48:27;;;;;;;;;8.00;8.00;;;;;19.89;100.00;101573.78;4991649;28;45464;-71
2022/10/19 10:50:53;;;;;;;;;8.00;7.00;;;;;19.93;100.00;101576.44;4975071;28;45560;-70
2022/10/19 10:53:35;;;;;;;;;11.67;10.00;;;;;19.97;100.00;101570.09;4974638;28;45609;-72
2022/10/19 10:56:00;;;;;;;;;13.33;8.00;;;;;20.01;100.00;101561.09;4976921;28;45849;-70
2022/10/19 10:59:09;;;;;;;;;7.33;7.00;;;;;20.07;100.00;101553.81;4976369;28;45506;-71
2022/10/19 11:01:39;;;;;;;;;8.00;8.00;;;;;20.13;100.00;101559.13;4968914;28;45511;-71
2022/10/19 11:04:09;;;;;;;;;9.00;9.00;;;;;20.19;100.00;101557.22;4976776;28;45333;-72
2022/10/19 11:06:40;;;;;;;;;7.33;7.33;;;;;20.27;100.00;101553.50;4976450;28;47210;-71
2022/10/19 11:09:26;;;;;;;;;9.67;7.33;;;;;20.37;100.00;101547.06;4990485;28;45532;-72
2022/10/19 11:11:54;;;;;;;;;10.00;9.00;;;;;20.44;100.00;101545.13;4972533;28;45507;-71
2022/10/19 11:14:45;;;;;;;;;9.33;8.00;;;;;20.52;100.00;101537.00;4998991;28;46038;-71
2022/10/19 11:17:24;;;;;;;;;8.00;8.00;;;;;20.56;100.00;101533.31;4991020;28;45608;-71
2022/10/19 11:19:50;;;;;;;;;7.33;6.67;;;;;20.59;100.00;101530.59;4991197;28;45471;-71
2022/10/19 11:22:18;;;;;;;;;9.00;6.00;;;;;20.62;100.00;101530.53;4975923;28;45428;-69